This is the latest recevied weather packets stored in our database for station/object W4CKA. If no packets are shown the sender has not sent any weather packets the latest 10 day(s).
| Time | Temp. | Humidity | Pressure | Rain* | Wind** | Luminosity | Snow |
|---|---|---|---|---|---|---|---|
| 1787670722 | 23.33° C | 72% | 1062.5 hPa | 0 mm | - | 617 W/m² | - |
| 1787670121 | 23.33° C | 73% | 1062.5 hPa | 0 mm | - | 558 W/m² | - |
| 1787669516 | 22.78° C | 72% | 1062.4 hPa | 0 mm | - | 652 W/m² | - |
| 1787668913 | 22.22° C | 76% | 1062.5 hPa | 0 mm | - | 586 W/m² | - |
| 1787668311 | 21.67° C | 78% | 1062.6 hPa | 0 mm | - | 492 W/m² | - |
| 1787667706 | 21.11° C | 76% | 1062.7 hPa | 0 mm | - | 445 W/m² | - |
| 1787667103 | 21.67° C | 79% | 1062.6 hPa | 0 mm | - | 390 W/m² | - |
| 1787666498 | 21.11° C | 81% | 1062.6 hPa | 0 mm | - | 390 W/m² | - |
| 1787665895 | 20.56° C | 82% | 1062.7 hPa | 0 mm | - | 276 W/m² | - |
| 1787665290 | 20.56° C | 80% | 1063.1 hPa | 0 mm | - | 273 W/m² | - |
| 1787664689 | 20.56° C | 79% | 1062.9 hPa | 0 mm | - | 262 W/m² | - |
| 1787664089 | 20° C | 83% | 1063 hPa | 0 mm | - | 339 W/m² | - |
| 1787663485 | 18.33° C | 87% | 1063 hPa | 0 mm | - | 254 W/m² | - |
| 1787662882 | 18.33° C | 89% | 1063 hPa | 0 mm | - | 201 W/m² | - |
| 1787662278 | 17.78° C | 89% | 1063 hPa | 0 mm | - | 202 W/m² | - |
| 1787661674 | 17.22° C | 89% | 1062.6 hPa | 0 mm | - | 144 W/m² | - |
| 1787661072 | 15.56° C | 97% | 1062.6 hPa | 0 mm | - | 113 W/m² | - |
| 1787660467 | 14.44° C | 99% | 1062.4 hPa | 0 mm | - | 44 W/m² | - |
| 1787659868 | 13.89° C | 99% | 1062.4 hPa | 0 mm | - | 53 W/m² | - |
| 1787659268 | 13.89° C | 99% | 1062.6 hPa | 0.51 mm | - | 40 W/m² | - |
| 1787658666 | 13.89° C | 99% | 1062.3 hPa | 0 mm | - | 33 W/m² | - |
| 1787658063 | 13.33° C | 99% | 1062.1 hPa | 0 mm | - | 28 W/m² | - |
| 1787657460 | 13.89° C | 99% | 1062.2 hPa | 0 mm | - | 18 W/m² | - |
| 1787656856 | 13.89° C | 99% | 1062.1 hPa | 0 mm | - | 15 W/m² | - |
| 1787656252 | 13.33° C | 99% | 1061.9 hPa | 0 mm | - | 7 W/m² | - |
* Rain latest hour (hover to see other rain measurements)
** Current wind speed in m/s (hover to see current wind gust speed)